createdAt,value
2023-03-05T00:01:14.511Z,6.98
2023-03-05T00:03:41.998Z,7.00
2023-03-05T00:06:09.657Z,7.27
2023-03-05T00:08:37.470Z,7.12
2023-03-05T00:11:10.475Z,6.88
2023-03-05T00:13:38.624Z,6.63
2023-03-05T00:16:08.340Z,6.55
2023-03-05T00:18:36.295Z,6.41
2023-03-05T00:21:04.446Z,6.54
2023-03-05T00:23:32.401Z,6.25
2023-03-05T00:26:03.731Z,6.29
2023-03-05T00:28:31.013Z,6.47
2023-03-05T00:31:01.153Z,6.68
2023-03-05T00:33:28.952Z,6.72
2023-03-05T00:35:57.382Z,6.41
2023-03-05T00:38:25.098Z,6.20
2023-03-05T00:40:52.850Z,5.78
2023-03-05T00:43:20.648Z,5.64
2023-03-05T00:45:48.007Z,5.59
2023-03-05T00:48:15.462Z,5.61
2023-03-05T00:50:42.777Z,5.75
2023-03-05T00:53:10.132Z,5.42
2023-03-05T00:55:37.869Z,5.59
2023-03-05T00:58:05.151Z,5.75
2023-03-05T01:00:32.534Z,5.78
2023-03-05T01:02:59.934Z,5.98
2023-03-05T01:05:27.416Z,6.21
2023-03-05T01:07:56.075Z,6.21
2023-03-05T01:10:26.634Z,5.65
2023-03-05T01:12:55.085Z,5.74
2023-03-05T01:15:23.768Z,6.13
2023-03-05T01:17:51.490Z,6.17
2023-03-05T01:20:21.382Z,6.27
2023-03-05T01:22:49.247Z,6.46
2023-03-05T01:25:18.284Z,6.38
2023-03-05T01:27:46.075Z,5.91
2023-03-05T01:30:15.070Z,5.85
2023-03-05T01:32:43.071Z,6.00
2023-03-05T01:35:15.534Z,6.26
2023-03-05T01:37:43.246Z,6.35
2023-03-05T01:40:12.615Z,6.58
2023-03-05T01:42:39.918Z,5.91
2023-03-05T01:45:17.569Z,5.59
2023-03-05T01:47:45.470Z,5.68
2023-03-05T01:50:22.738Z,5.58
2023-03-05T01:53:11.479Z,5.56
2023-03-05T01:55:39.401Z,5.74
2023-03-05T01:58:11.314Z,6.11
2023-03-05T02:00:41.531Z,6.14
2023-03-05T02:03:11.306Z,6.01
2023-03-05T02:05:43.256Z,5.98
2023-03-05T02:08:12.940Z,6.12
2023-03-05T02:10:44.164Z,5.97
2023-03-05T02:13:18.933Z,5.61
2023-03-05T02:15:47.741Z,5.26
2023-03-05T02:18:16.837Z,4.80
2023-03-05T02:20:48.656Z,4.55
2023-03-05T02:23:18.370Z,4.32
2023-03-05T02:25:45.771Z,4.43
2023-03-05T02:28:26.623Z,4.45
2023-03-05T02:30:54.332Z,4.31
2023-03-05T02:33:21.705Z,4.12
2023-03-05T02:35:50.098Z,4.14
2023-03-05T02:38:19.833Z,4.04
2023-03-05T02:40:47.313Z,3.99
2023-03-05T02:43:16.955Z,4.13
2023-03-05T02:45:44.525Z,3.96
2023-03-05T02:48:11.960Z,3.95
2023-03-05T02:50:40.386Z,4.00
2023-03-05T02:53:07.994Z,3.94
2023-03-05T02:55:35.756Z,4.07
2023-03-05T02:58:03.889Z,3.91
2023-03-05T03:00:31.395Z,4.00
2023-03-05T03:02:58.812Z,4.11
2023-03-05T03:05:26.211Z,3.97
2023-03-05T03:07:53.983Z,4.34
2023-03-05T03:10:21.658Z,4.94
2023-03-05T03:12:48.951Z,5.09
2023-03-05T03:15:17.468Z,5.22
2023-03-05T03:17:45.355Z,5.37
2023-03-05T03:20:16.500Z,5.57
2023-03-05T03:22:46.310Z,5.70
2023-03-05T03:25:21.318Z,5.83
2023-03-05T03:27:52.416Z,5.83
2023-03-05T03:30:20.181Z,5.93
2023-03-05T03:32:47.721Z,5.72
2023-03-05T03:35:15.141Z,5.67
2023-03-05T03:37:42.946Z,5.59
2023-03-05T03:40:11.963Z,5.30
2023-03-05T03:42:39.309Z,5.32
2023-03-05T03:45:07.309Z,5.26
2023-03-05T03:47:35.008Z,5.21
2023-03-05T03:50:03.019Z,4.78
2023-03-05T03:52:30.347Z,4.41
2023-03-05T03:55:01.599Z,4.19
2023-03-05T03:57:33.596Z,4.08
2023-03-05T04:00:01.257Z,3.90
2023-03-05T04:02:28.527Z,3.92
2023-03-05T04:04:56.233Z,3.73
2023-03-05T04:07:23.626Z,3.66
2023-03-05T04:09:51.986Z,3.40
2023-03-05T04:12:19.394Z,3.38
2023-03-05T04:14:48.344Z,3.58
2023-03-05T04:17:16.580Z,3.65
2023-03-05T04:19:44.948Z,3.31
2023-03-05T04:22:13.993Z,3.46
2023-03-05T04:24:41.939Z,4.10
2023-03-05T04:27:10.059Z,4.00
2023-03-05T04:29:38.420Z,4.11
2023-03-05T04:32:06.302Z,3.80
2023-03-05T04:34:34.057Z,4.04
2023-03-05T04:37:01.483Z,4.22
2023-03-05T04:39:28.808Z,4.24
2023-03-05T04:41:56.339Z,4.38
2023-03-05T04:44:25.940Z,4.41
2023-03-05T04:46:53.401Z,4.50
2023-03-05T04:49:20.628Z,4.33
2023-03-05T04:51:48.590Z,4.09
2023-03-05T04:54:16.366Z,3.95
2023-03-05T04:56:43.777Z,4.03
2023-03-05T04:59:11.302Z,4.20
2023-03-05T05:01:39.244Z,4.34
2023-03-05T05:04:06.771Z,4.43
2023-03-05T05:06:34.585Z,4.24
2023-03-05T05:09:01.861Z,3.87
2023-03-05T05:11:29.308Z,3.59
2023-03-05T05:13:56.618Z,3.47
2023-03-05T05:16:24.522Z,3.25
2023-03-05T05:18:52.281Z,3.13
2023-03-05T05:21:20.378Z,3.20
2023-03-05T05:23:47.679Z,3.14
2023-03-05T05:26:15.353Z,3.09
2023-03-05T05:28:43.964Z,2.95
2023-03-05T05:31:14.067Z,2.82
2023-03-05T05:33:41.778Z,3.11
2023-03-05T05:36:12.967Z,3.11
2023-03-05T05:38:40.821Z,3.28
2023-03-05T05:41:11.113Z,3.34
2023-03-05T05:43:39.118Z,3.37
2023-03-05T05:46:09.624Z,3.60
2023-03-05T05:48:37.074Z,3.77
2023-03-05T05:51:09.334Z,3.84
2023-03-05T05:53:37.266Z,3.88
2023-03-05T05:56:05.994Z,3.45
2023-03-05T05:58:33.963Z,3.41
2023-03-05T06:01:01.998Z,3.25
2023-03-05T06:03:29.339Z,2.82
2023-03-05T06:05:56.832Z,2.54
2023-03-05T06:08:24.090Z,2.41
2023-03-05T06:10:55.522Z,2.40
2023-03-05T06:13:23.776Z,2.52
2023-03-05T06:15:58.490Z,2.59
2023-03-05T06:18:25.823Z,2.65
2023-03-05T06:21:02.189Z,2.75
2023-03-05T06:23:29.660Z,2.77
2023-03-05T06:26:02.952Z,2.89
2023-03-05T06:28:30.710Z,3.30
2023-03-05T06:31:05.309Z,3.38
2023-03-05T06:33:33.378Z,3.56
2023-03-05T06:36:04.832Z,4.06
2023-03-05T06:38:33.149Z,4.20
2023-03-05T06:41:02.063Z,4.22
2023-03-05T06:43:29.341Z,4.40
2023-03-05T06:46:13.901Z,4.70
2023-03-05T06:48:43.264Z,4.78
2023-03-05T06:51:18.970Z,4.84
2023-03-05T06:53:49.280Z,4.62
2023-03-05T06:56:18.245Z,4.34
2023-03-05T06:58:47.910Z,4.13
2023-03-05T07:01:16.382Z,4.02
2023-03-05T07:03:43.957Z,3.83
2023-03-05T07:06:14.035Z,3.73
2023-03-05T07:08:42.229Z,3.80
2023-03-05T07:11:15.469Z,3.95
2023-03-05T07:13:43.513Z,3.94
2023-03-05T07:16:15.027Z,4.12
2023-03-05T07:18:42.855Z,4.23
2023-03-05T07:21:15.001Z,4.42
2023-03-05T07:23:42.411Z,4.75
2023-03-05T07:26:11.290Z,5.03
2023-03-05T07:28:38.956Z,5.08
2023-03-05T07:31:11.738Z,5.42
2023-03-05T07:33:39.160Z,5.67
2023-03-05T07:36:10.371Z,5.44
2023-03-05T07:38:38.265Z,5.85
2023-03-05T07:41:11.993Z,5.92
2023-03-05T07:43:39.849Z,5.98
2023-03-05T07:46:09.036Z,5.77
2023-03-05T07:48:36.797Z,6.12
2023-03-05T07:51:07.096Z,6.04
2023-03-05T07:53:35.604Z,6.49
2023-03-05T07:56:03.661Z,6.11
2023-03-05T07:58:31.051Z,5.65
2023-03-05T08:00:58.856Z,6.02
2023-03-05T08:03:26.216Z,6.71
2023-03-05T08:05:53.489Z,6.72
2023-03-05T08:08:20.862Z,6.50
2023-03-05T08:10:48.573Z,6.69
2023-03-05T08:13:16.889Z,6.33
2023-03-05T08:15:46.078Z,6.14
2023-03-05T08:18:13.863Z,6.29
2023-03-05T08:20:41.670Z,6.59
2023-03-05T08:23:09.002Z,6.73
2023-03-05T08:25:37.867Z,6.76
2023-03-05T08:28:05.300Z,6.87
2023-03-05T08:30:32.684Z,6.76
2023-03-05T08:33:00.035Z,7.05
2023-03-05T08:35:27.340Z,6.97
2023-03-05T08:37:54.609Z,7.34
2023-03-05T08:40:22.266Z,7.69
2023-03-05T08:42:51.947Z,8.02
2023-03-05T08:45:19.712Z,7.80
2023-03-05T08:47:47.076Z,8.09
2023-03-05T08:50:14.376Z,8.06
2023-03-05T08:52:41.602Z,7.84
2023-03-05T08:55:09.277Z,7.92
2023-03-05T08:57:36.913Z,8.05
2023-03-05T09:00:04.798Z,8.09
2023-03-05T09:02:32.277Z,8.48
2023-03-05T09:04:59.545Z,8.47
2023-03-05T09:07:27.178Z,8.40
2023-03-05T09:09:54.879Z,8.62
2023-03-05T09:12:22.331Z,8.86
2023-03-05T09:14:49.816Z,9.00
2023-03-05T09:17:17.149Z,9.10
2023-03-05T09:19:44.467Z,9.15
2023-03-05T09:22:11.790Z,8.88
2023-03-05T09:24:39.614Z,9.17
2023-03-05T09:27:07.003Z,9.25
2023-03-05T09:29:34.292Z,9.24
2023-03-05T09:32:01.655Z,9.42
2023-03-05T09:34:29.016Z,9.53
2023-03-05T09:36:56.381Z,9.88
2023-03-05T09:39:23.665Z,10.08
2023-03-05T09:42:18.140Z,10.07
2023-03-05T09:45:28.760Z,10.36
2023-03-05T09:48:05.689Z,10.09
2023-03-05T09:50:38.973Z,10.03
2023-03-05T09:53:40.223Z,10.34
2023-03-05T09:56:14.162Z,10.93
2023-03-05T09:58:46.172Z,10.99
2023-03-05T10:01:17.546Z,11.13
2023-03-05T10:03:57.422Z,11.28
2023-03-05T10:06:26.738Z,10.96
2023-03-05T10:08:58.979Z,11.20
2023-03-05T10:11:55.020Z,11.72
2023-03-05T10:14:27.857Z,12.00
2023-03-05T10:17:19.777Z,11.46
2023-03-05T10:19:59.071Z,11.53
2023-03-05T10:22:31.943Z,11.63
2023-03-05T10:25:36.369Z,12.45
2023-03-05T10:28:19.083Z,12.64
2023-03-05T10:31:04.882Z,12.45
2023-03-05T10:33:54.594Z,12.80
2023-03-05T10:36:50.809Z,12.38
2023-03-05T10:39:47.336Z,12.36
2023-03-05T10:42:54.051Z,12.71
2023-03-05T10:45:26.619Z,13.10
2023-03-05T10:47:59.461Z,12.84
2023-03-05T10:50:33.517Z,13.41
2023-03-05T10:53:14.351Z,13.26
2023-03-05T10:55:42.368Z,13.50
2023-03-05T10:58:15.033Z,13.68
2023-03-05T11:01:06.721Z,13.76
2023-03-05T11:04:00.585Z,13.95
2023-03-05T11:06:45.772Z,14.29
2023-03-05T11:09:22.791Z,14.31
2023-03-05T11:12:13.615Z,13.49
2023-03-05T11:15:04.930Z,13.74
2023-03-05T11:17:39.645Z,13.81
2023-03-05T11:20:28.881Z,13.77
2023-03-05T11:23:18.289Z,13.58
2023-03-05T11:25:54.126Z,13.65
2023-03-05T11:28:37.172Z,13.56
2023-03-05T11:31:16.240Z,13.95
2023-03-05T11:34:02.083Z,14.09
2023-03-05T11:36:41.818Z,14.18
2023-03-05T11:39:18.226Z,14.51
2023-03-05T11:42:00.046Z,14.54
2023-03-05T11:44:34.907Z,14.88
2023-03-05T11:47:14.064Z,14.92
2023-03-05T11:49:45.566Z,15.02
2023-03-05T11:52:21.201Z,15.00
2023-03-05T11:54:56.865Z,15.39
2023-03-05T11:57:25.914Z,15.23
2023-03-05T11:59:56.321Z,15.32
2023-03-05T12:02:27.265Z,15.77
2023-03-05T12:04:56.029Z,15.76
2023-03-05T12:07:34.634Z,15.75
2023-03-05T12:10:02.648Z,15.98
2023-03-05T12:12:32.182Z,16.28
2023-03-05T12:15:17.379Z,16.34
2023-03-05T12:18:11.413Z,16.06
2023-03-05T12:21:02.706Z,15.81
2023-03-05T12:23:44.705Z,16.28
2023-03-05T12:26:12.145Z,16.39
2023-03-05T12:28:43.008Z,16.41
2023-03-05T12:31:11.506Z,16.43
2023-03-05T12:33:41.790Z,16.79
2023-03-05T12:36:21.254Z,16.70
2023-03-05T12:38:52.892Z,16.91
2023-03-05T12:41:24.936Z,17.12
2023-03-05T12:44:10.647Z,16.96
2023-03-05T12:46:43.857Z,16.78
2023-03-05T12:49:22.884Z,17.07
2023-03-05T12:51:53.082Z,17.18
2023-03-05T12:54:32.882Z,17.14
2023-03-05T12:57:04.418Z,16.84
2023-03-05T12:59:45.233Z,16.84
2023-03-05T13:02:23.913Z,17.28
2023-03-05T13:04:53.435Z,17.65
2023-03-05T13:07:20.691Z,17.51
2023-03-05T13:10:06.557Z,17.11
2023-03-05T13:12:36.393Z,17.71
2023-03-05T13:15:06.595Z,17.67
2023-03-05T13:17:38.293Z,17.70
2023-03-05T13:20:23.817Z,17.63
2023-03-05T13:23:04.163Z,18.08
2023-03-05T13:25:32.344Z,17.83
2023-03-05T13:28:16.822Z,17.83
2023-03-05T13:30:57.127Z,17.99
2023-03-05T13:33:33.446Z,17.85
2023-03-05T13:36:01.469Z,18.14
2023-03-05T13:38:39.094Z,18.32
2023-03-05T13:41:16.008Z,18.16
2023-03-05T13:43:49.448Z,18.09
2023-03-05T13:46:42.036Z,18.46
2023-03-05T13:49:24.403Z,18.50
2023-03-05T13:51:57.790Z,17.92
2023-03-05T13:54:27.417Z,17.85
2023-03-05T13:56:58.950Z,18.41
2023-03-05T13:59:30.826Z,20.08
2023-03-05T14:02:00.989Z,23.47
2023-03-05T14:04:31.065Z,27.60
2023-03-05T14:07:39.277Z,30.24
2023-03-05T14:10:34.406Z,32.47
2023-03-05T14:13:06.127Z,31.51
2023-03-05T14:15:35.343Z,32.10
2023-03-05T14:18:17.033Z,33.77
2023-03-05T14:21:04.092Z,31.80
2023-03-05T14:23:37.516Z,32.36
2023-03-05T14:26:28.609Z,35.18
2023-03-05T14:29:00.277Z,36.62
2023-03-05T14:31:30.797Z,30.38
2023-03-05T14:34:07.224Z,30.33
2023-03-05T14:36:35.716Z,32.75
2023-03-05T14:39:05.036Z,34.31
2023-03-05T14:41:41.529Z,32.95
2023-03-05T14:44:17.512Z,33.22
2023-03-05T14:46:49.957Z,33.86
2023-03-05T14:49:17.717Z,34.59
2023-03-05T14:51:46.454Z,33.39
2023-03-05T14:54:26.247Z,33.45
2023-03-05T14:56:54.050Z,32.45
2023-03-05T14:59:21.839Z,32.59
2023-03-05T15:01:50.859Z,31.32
2023-03-05T15:04:20.962Z,31.96
2023-03-05T15:06:51.166Z,30.75
2023-03-05T15:09:20.422Z,30.07
2023-03-05T15:11:48.263Z,32.67
2023-03-05T15:14:16.527Z,32.61
2023-03-05T15:16:45.837Z,32.82
2023-03-05T15:19:13.711Z,32.16
2023-03-05T15:21:41.891Z,31.24
2023-03-05T15:24:11.284Z,30.54
2023-03-05T15:26:39.265Z,29.51
2023-03-05T15:29:07.121Z,28.41
2023-03-05T15:31:38.646Z,29.10
2023-03-05T15:34:06.470Z,29.92
2023-03-05T15:36:33.938Z,28.83
2023-03-05T15:39:01.973Z,29.88
2023-03-05T15:41:30.066Z,29.44
2023-03-05T15:43:57.728Z,28.92
2023-03-05T15:46:25.184Z,28.70
2023-03-05T15:48:52.421Z,28.16
2023-03-05T15:51:20.441Z,29.00
2023-03-05T15:53:48.510Z,28.31
2023-03-05T15:56:19.757Z,27.17
2023-03-05T15:58:50.686Z,26.17
2023-03-05T16:01:23.381Z,27.61
2023-03-05T16:03:51.851Z,25.98
2023-03-05T16:06:23.316Z,24.99
2023-03-05T16:08:55.150Z,26.49
2023-03-05T16:11:22.978Z,25.29
2023-03-05T16:13:50.559Z,22.93
2023-03-05T16:16:19.183Z,24.03
2023-03-05T16:18:48.012Z,23.47
2023-03-05T16:21:15.887Z,23.94
2023-03-05T16:23:43.196Z,23.27
2023-03-05T16:26:10.626Z,21.37
2023-03-05T16:28:38.055Z,20.55
2023-03-05T16:31:05.639Z,20.50
2023-03-05T16:33:33.249Z,19.99
2023-03-05T16:36:21.086Z,19.15
2023-03-05T16:38:51.044Z,18.82
2023-03-05T16:41:21.961Z,17.95
2023-03-05T16:43:53.322Z,17.79
2023-03-05T16:46:20.802Z,17.61
2023-03-05T16:48:49.120Z,17.42
2023-03-05T16:51:16.393Z,17.36
2023-03-05T16:53:44.070Z,17.18
2023-03-05T16:56:12.138Z,16.88
2023-03-05T16:58:40.724Z,16.61
2023-03-05T17:01:16.316Z,16.38
2023-03-05T17:03:44.949Z,16.12
2023-03-05T17:06:18.729Z,16.00
2023-03-05T17:08:47.238Z,15.85
2023-03-05T17:11:16.040Z,15.78
2023-03-05T17:13:43.442Z,15.65
2023-03-05T17:16:14.230Z,15.33
2023-03-05T17:18:42.018Z,15.22
2023-03-05T17:21:10.530Z,15.08
2023-03-05T17:23:38.760Z,15.06
2023-03-05T17:26:12.606Z,14.98
2023-03-05T17:28:40.463Z,14.93
2023-03-05T17:31:09.003Z,14.84
2023-03-05T17:33:37.808Z,14.66
2023-03-05T17:36:06.011Z,14.50
2023-03-05T17:38:33.686Z,14.48
2023-03-05T17:41:01.477Z,14.38
2023-03-05T17:43:28.926Z,14.27
2023-03-05T17:46:01.883Z,14.10
2023-03-05T17:48:29.837Z,13.90
2023-03-05T17:50:58.711Z,13.80
2023-03-05T17:53:26.844Z,13.66
2023-03-05T17:55:54.080Z,13.76
2023-03-05T17:58:21.760Z,13.81
2023-03-05T18:00:49.556Z,13.80
2023-03-05T18:03:16.919Z,13.83
2023-03-05T18:05:44.709Z,13.84
2023-03-05T18:08:12.120Z,13.87
2023-03-05T18:10:39.516Z,13.87
2023-03-05T18:13:07.223Z,13.92
2023-03-05T18:15:35.967Z,13.98
2023-03-05T18:18:04.137Z,13.88
2023-03-05T18:20:35.917Z,13.83
2023-03-05T18:23:05.890Z,13.88
2023-03-05T18:25:33.756Z,13.91
2023-03-05T18:28:06.297Z,13.90
2023-03-05T18:30:34.642Z,13.82
2023-03-05T18:33:02.266Z,13.76
2023-03-05T18:35:31.243Z,13.81
2023-03-05T18:37:58.969Z,13.74
2023-03-05T18:40:29.923Z,13.82
2023-03-05T18:43:00.209Z,13.63
2023-03-05T18:45:28.814Z,13.67
2023-03-05T18:47:57.309Z,13.78
2023-03-05T18:50:26.512Z,13.83
2023-03-05T18:52:54.212Z,13.80
2023-03-05T18:55:24.903Z,13.69
2023-03-05T18:57:52.751Z,13.66
2023-03-05T19:00:24.960Z,13.65
2023-03-05T19:02:52.819Z,13.63
2023-03-05T19:05:20.998Z,13.64
2023-03-05T19:07:48.853Z,13.28
2023-03-05T19:10:17.633Z,12.81
2023-03-05T19:13:25.381Z,12.27
2023-03-05T19:15:53.983Z,11.85
2023-03-05T19:19:23.773Z,11.90
2023-03-05T19:21:58.568Z,11.75
2023-03-05T19:24:29.337Z,11.57
2023-03-05T19:27:00.942Z,11.20
2023-03-05T19:29:32.991Z,11.64
2023-03-05T19:32:00.694Z,11.61
2023-03-05T19:34:28.690Z,11.56
2023-03-05T19:36:56.378Z,11.63
2023-03-05T19:39:24.271Z,11.78
2023-03-05T19:41:52.212Z,11.92
2023-03-05T19:44:19.636Z,11.92
2023-03-05T19:46:48.557Z,12.00
2023-03-05T19:49:18.225Z,11.92
2023-03-05T19:51:46.853Z,11.96
2023-03-05T19:54:15.870Z,12.00
2023-03-05T19:56:44.766Z,11.94
2023-03-05T19:59:17.107Z,11.92
2023-03-05T20:01:45.741Z,11.80
2023-03-05T20:04:17.214Z,11.73
2023-03-05T20:06:45.971Z,11.77
2023-03-05T20:09:14.913Z,11.64
2023-03-05T20:11:42.550Z,11.65
2023-03-05T20:14:13.018Z,11.65
2023-03-05T20:16:41.354Z,11.58
2023-03-05T20:19:10.822Z,11.62
2023-03-05T20:21:41.955Z,11.62
2023-03-05T20:24:14.311Z,11.48
2023-03-05T20:26:43.297Z,11.62
2023-03-05T20:29:11.954Z,11.53
2023-03-05T20:31:40.957Z,11.50
2023-03-05T20:34:14.825Z,11.53
2023-03-05T20:36:42.262Z,11.58
2023-03-05T20:39:10.555Z,11.59
2023-03-05T20:41:39.609Z,11.53
2023-03-05T20:44:08.833Z,11.50
2023-03-05T20:47:33.113Z,11.57
2023-03-05T20:50:04.563Z,11.36
2023-03-05T20:52:32.094Z,11.57
2023-03-05T20:54:59.985Z,11.60
2023-03-05T20:57:27.742Z,11.58
2023-03-05T20:59:55.053Z,11.44
2023-03-05T21:02:22.837Z,11.45
2023-03-05T21:04:50.171Z,11.18
2023-03-05T21:07:17.442Z,10.90
2023-03-05T21:09:45.343Z,10.60
2023-03-05T21:12:13.637Z,10.38
2023-03-05T21:14:41.369Z,10.20
2023-03-05T21:17:08.926Z,10.12
2023-03-05T21:19:37.962Z,9.43
2023-03-05T21:22:05.649Z,8.98
2023-03-05T21:25:21.090Z,8.69
2023-03-05T21:27:49.596Z,8.43
2023-03-05T21:30:18.776Z,8.30
2023-03-05T21:32:46.632Z,8.02
2023-03-05T21:35:20.780Z,7.97
2023-03-05T21:37:49.107Z,8.34
2023-03-05T21:40:18.760Z,8.87
2023-03-05T21:42:47.158Z,9.06
2023-03-05T21:45:18.160Z,9.33
2023-03-05T21:47:46.107Z,9.17
2023-03-05T21:50:14.903Z,8.79
2023-03-05T21:52:42.926Z,8.44
2023-03-05T21:55:15.986Z,8.44
2023-03-05T21:57:43.962Z,8.69
2023-03-05T22:00:13.872Z,8.99
2023-03-05T22:02:41.917Z,9.25
2023-03-05T22:05:13.281Z,9.19
2023-03-05T22:07:40.961Z,9.29
2023-03-05T22:10:15.824Z,9.40
2023-03-05T22:13:11.752Z,9.59
2023-03-05T22:15:49.917Z,9.65
2023-03-05T22:18:20.794Z,9.51
2023-03-05T22:20:48.825Z,9.36
2023-03-05T22:23:17.473Z,9.62
2023-03-05T22:25:45.594Z,9.48
2023-03-05T22:28:13.523Z,9.28
2023-03-05T22:30:44.491Z,8.40
2023-03-05T22:33:12.567Z,8.17
2023-03-05T22:35:41.091Z,7.75
2023-03-05T22:38:09.742Z,7.88
2023-03-05T22:40:41.457Z,8.30
2023-03-05T22:43:08.872Z,8.68
2023-03-05T22:45:36.367Z,8.83
2023-03-05T22:48:04.057Z,8.87
2023-03-05T22:50:31.615Z,8.89
2023-03-05T22:52:59.822Z,7.91
2023-03-05T22:55:27.157Z,8.40
2023-03-05T22:57:54.521Z,8.33
2023-03-05T23:00:23.914Z,8.60
